createdAt,value
2022-12-07T00:01:33.574Z,21.98
2022-12-07T00:04:05.997Z,21.58
2022-12-07T00:06:38.762Z,22.33
2022-12-07T00:09:11.953Z,20.88
2022-12-07T00:11:38.994Z,26.50
2022-12-07T00:14:12.660Z,21.63
2022-12-07T00:16:40.227Z,26.10
2022-12-07T00:19:07.378Z,25.20
2022-12-07T00:21:36.875Z,23.88
2022-12-07T00:24:05.530Z,27.95
2022-12-07T00:26:35.463Z,21.73
2022-12-07T00:29:06.445Z,23.58
2022-12-07T00:31:39.874Z,30.17
2022-12-07T00:34:08.304Z,20.35
2022-12-07T00:36:35.243Z,20.77
2022-12-07T00:39:03.327Z,24.25
2022-12-07T00:41:31.392Z,20.98
2022-12-07T00:43:59.005Z,23.08
2022-12-07T00:46:26.499Z,21.42
2022-12-07T00:48:54.942Z,21.58
2022-12-07T00:51:26.054Z,19.77
2022-12-07T00:53:53.812Z,25.55
2022-12-07T00:56:26.401Z,22.20
2022-12-07T00:58:59.869Z,26.80
2022-12-07T01:01:29.124Z,19.40
2022-12-07T01:03:56.340Z,23.08
2022-12-07T01:06:25.173Z,18.70
2022-12-07T01:08:52.589Z,20.52
2022-12-07T01:11:22.670Z,20.20
2022-12-07T01:13:52.333Z,19.73
2022-12-07T01:16:20.238Z,17.08
2022-12-07T01:18:49.206Z,17.20
2022-12-07T01:21:22.234Z,17.27
2022-12-07T01:23:49.944Z,15.60
2022-12-07T01:26:19.882Z,13.82
2022-12-07T01:28:47.228Z,13.43
2022-12-07T01:31:17.205Z,15.05
2022-12-07T01:33:53.306Z,14.63
2022-12-07T01:36:26.514Z,17.02
2022-12-07T01:38:57.688Z,12.30
2022-12-07T01:41:27.145Z,16.10
2022-12-07T01:44:24.743Z,12.80
2022-12-07T01:47:00.291Z,16.27
2022-12-07T01:49:40.015Z,16.35
2022-12-07T01:52:12.897Z,16.77
2022-12-07T01:54:41.022Z,21.48
2022-12-07T01:57:10.026Z,20.27
2022-12-07T01:59:37.493Z,26.95
2022-12-07T02:02:11.005Z,20.00
2022-12-07T02:04:38.056Z,17.58
2022-12-07T02:07:06.225Z,17.88
2022-12-07T02:09:33.241Z,20.88
2022-12-07T02:12:00.190Z,21.55
2022-12-07T02:14:27.243Z,17.25
2022-12-07T02:17:25.627Z,25.65
2022-12-07T02:20:10.339Z,29.35
2022-12-07T02:23:27.885Z,24.80
2022-12-07T02:26:26.752Z,25.25
2022-12-07T02:29:14.879Z,25.88
2022-12-07T02:31:52.452Z,29.52
2022-12-07T02:34:26.736Z,27.10
2022-12-07T02:37:02.862Z,29.55
2022-12-07T02:39:59.896Z,27.05
2022-12-07T02:42:42.825Z,25.48
2022-12-07T02:45:13.875Z,21.70
2022-12-07T02:47:42.485Z,29.55
2022-12-07T02:50:09.782Z,27.80
2022-12-07T02:52:37.112Z,28.42
2022-12-07T02:55:05.360Z,28.13
2022-12-07T02:58:33.692Z,24.52
2022-12-07T03:01:22.201Z,21.30
2022-12-07T03:04:07.054Z,23.55
2022-12-07T03:06:43.463Z,25.65
2022-12-07T03:09:27.635Z,29.38
2022-12-07T03:12:09.745Z,23.48
2022-12-07T03:14:43.700Z,29.00
2022-12-07T03:17:19.062Z,35.35
2022-12-07T03:19:47.274Z,36.42
2022-12-07T03:22:15.972Z,31.20
2022-12-07T03:24:56.117Z,32.88
2022-12-07T03:27:28.240Z,29.75
2022-12-07T03:30:05.983Z,30.75
2022-12-07T03:32:38.975Z,26.15
2022-12-07T03:35:12.977Z,28.20
2022-12-07T03:40:34.824Z,24.73
2022-12-07T03:43:03.194Z,33.67
2022-12-07T03:45:45.058Z,26.33
2022-12-07T03:48:38.226Z,37.17
2022-12-07T03:51:26.573Z,32.90
2022-12-07T03:54:19.710Z,31.58
2022-12-07T03:56:47.900Z,25.05
2022-12-07T03:59:16.825Z,30.83
2022-12-07T04:01:54.791Z,32.53
2022-12-07T04:04:22.770Z,29.73
2022-12-07T04:06:49.815Z,34.17
2022-12-07T04:09:18.367Z,36.15
2022-12-07T04:11:45.322Z,28.33
2022-12-07T04:14:21.336Z,27.70
2022-12-07T04:16:53.270Z,38.47
2022-12-07T04:19:22.561Z,27.95
2022-12-07T04:21:49.483Z,36.55
2022-12-07T04:24:16.995Z,28.95
2022-12-07T04:26:44.865Z,33.30
2022-12-07T04:29:12.291Z,32.47
2022-12-07T04:31:39.621Z,38.28
2022-12-07T04:34:07.598Z,40.80
2022-12-07T04:36:34.786Z,27.50
2022-12-07T04:39:02.352Z,34.97
2022-12-07T04:41:29.458Z,36.78
2022-12-07T04:44:01.905Z,33.30
2022-12-07T04:46:30.273Z,45.75
2022-12-07T04:48:58.064Z,41.17
2022-12-07T04:51:27.902Z,35.95
2022-12-07T04:53:56.075Z,42.38
2022-12-07T04:56:23.537Z,43.47
2022-12-07T04:58:52.414Z,40.40
2022-12-07T05:01:20.016Z,38.17
2022-12-07T05:03:47.139Z,46.05
2022-12-07T05:06:14.558Z,42.05
2022-12-07T05:08:42.297Z,37.30
2022-12-07T05:11:09.941Z,37.35
2022-12-07T05:13:37.514Z,39.65
2022-12-07T05:16:04.758Z,37.63
2022-12-07T05:18:31.731Z,41.25
2022-12-07T05:20:58.737Z,32.92
2022-12-07T05:23:25.663Z,38.58
2022-12-07T05:25:52.673Z,48.03
2022-12-07T05:28:19.579Z,40.08
2022-12-07T05:30:46.980Z,34.95
2022-12-07T05:33:13.864Z,36.15
2022-12-07T05:35:41.510Z,47.78
2022-12-07T05:38:08.566Z,44.80
2022-12-07T05:40:35.563Z,41.10
2022-12-07T05:43:04.972Z,41.75
2022-12-07T05:45:32.303Z,45.15
2022-12-07T05:47:59.411Z,44.28
2022-12-07T05:50:26.498Z,43.22
2022-12-07T05:53:01.433Z,43.85
2022-12-07T05:55:28.554Z,43.60
2022-12-07T05:58:14.131Z,37.38
2022-12-07T06:00:41.084Z,42.80
2022-12-07T06:03:08.139Z,35.53
2022-12-07T06:05:35.210Z,37.33
2022-12-07T06:08:05.836Z,39.08
2022-12-07T06:10:33.305Z,42.53
2022-12-07T06:13:00.591Z,43.83
2022-12-07T06:15:27.587Z,43.20
2022-12-07T06:17:54.494Z,52.33
2022-12-07T06:20:21.462Z,43.25
2022-12-07T06:22:48.378Z,39.72
2022-12-07T06:25:15.510Z,42.40
2022-12-07T06:27:42.419Z,33.17
2022-12-07T06:30:10.037Z,37.17
2022-12-07T06:32:38.374Z,37.78
2022-12-07T06:35:06.044Z,37.75
2022-12-07T06:37:33.128Z,35.22
2022-12-07T06:40:00.615Z,34.30
2022-12-07T06:42:27.874Z,34.88
2022-12-07T06:44:54.885Z,30.45
2022-12-07T06:50:09.242Z,32.08
2022-12-07T06:52:36.169Z,34.20
2022-12-07T06:55:03.229Z,28.80
2022-12-07T06:57:30.189Z,37.28
2022-12-07T06:59:57.199Z,39.33
2022-12-07T07:02:24.219Z,31.52
2022-12-07T07:04:51.182Z,34.95
2022-12-07T07:07:18.129Z,32.10
2022-12-07T07:09:45.347Z,35.47
2022-12-07T07:12:12.314Z,25.35
2022-12-07T07:14:39.302Z,25.63
2022-12-07T07:17:06.260Z,37.47
2022-12-07T07:19:33.265Z,32.22
2022-12-07T07:22:00.239Z,47.67
2022-12-07T07:24:27.276Z,36.67
2022-12-07T07:26:54.283Z,34.67
2022-12-07T07:29:21.325Z,35.75
2022-12-07T07:31:48.326Z,36.42
2022-12-07T07:34:15.244Z,37.80
2022-12-07T07:36:42.182Z,30.73
2022-12-07T07:39:10.430Z,34.97
2022-12-07T07:41:37.334Z,31.45
2022-12-07T07:44:04.466Z,31.05
2022-12-07T07:46:31.599Z,31.42
2022-12-07T07:48:58.634Z,35.70
2022-12-07T07:51:26.018Z,34.42
2022-12-07T07:53:53.044Z,34.53
2022-12-07T07:56:19.976Z,28.67
2022-12-07T07:58:47.120Z,41.47
2022-12-07T08:01:14.632Z,37.80
2022-12-07T08:03:41.752Z,43.58
2022-12-07T08:06:08.698Z,38.97
2022-12-07T08:08:35.676Z,42.97
2022-12-07T08:11:06.908Z,38.92
2022-12-07T08:13:34.323Z,43.42
2022-12-07T08:16:06.604Z,42.25
2022-12-07T08:18:37.729Z,44.20
2022-12-07T08:21:05.260Z,46.78
2022-12-07T08:23:39.168Z,43.08
2022-12-07T08:26:10.169Z,45.78
2022-12-07T08:28:38.062Z,40.75
2022-12-07T08:31:08.253Z,45.67
2022-12-07T08:33:36.035Z,40.58
2022-12-07T08:36:09.213Z,45.38
2022-12-07T08:38:37.585Z,41.83
2022-12-07T08:41:04.888Z,44.83
2022-12-07T08:43:32.514Z,37.85
2022-12-07T08:46:14.457Z,51.05
2022-12-07T08:48:52.330Z,35.33
2022-12-07T08:51:20.259Z,64.72
2022-12-07T08:53:47.538Z,42.75
2022-12-07T08:56:14.923Z,36.80
2022-12-07T08:58:42.463Z,45.78
2022-12-07T09:01:09.680Z,43.67
2022-12-07T09:03:36.669Z,37.80
2022-12-07T09:06:04.373Z,41.35
2022-12-07T09:08:37.031Z,46.97
2022-12-07T09:11:04.158Z,49.47
2022-12-07T09:13:31.241Z,56.03
2022-12-07T09:15:58.396Z,49.67
2022-12-07T09:18:25.806Z,40.08
2022-12-07T09:20:52.911Z,43.58
2022-12-07T09:23:19.930Z,49.85
2022-12-07T09:25:46.882Z,53.83
2022-12-07T09:28:13.859Z,55.25
2022-12-07T09:31:20.948Z,53.03
2022-12-07T09:33:34.238Z,45.47
2022-12-07T09:36:01.154Z,64.60
2022-12-07T09:38:28.202Z,54.78
2022-12-07T09:40:56.200Z,59.20
2022-12-07T09:43:26.126Z,58.72
2022-12-07T09:45:55.733Z,54.33
2022-12-07T09:48:29.790Z,67.50
2022-12-07T09:53:35.430Z,56.20
2022-12-07T09:56:03.194Z,57.95
2022-12-07T09:58:32.165Z,50.78
2022-12-07T10:01:02.846Z,59.00
2022-12-07T10:03:30.511Z,38.42
2022-12-07T10:05:58.384Z,46.80
2022-12-07T10:08:26.943Z,41.42
2022-12-07T10:10:57.335Z,42.55
2022-12-07T10:13:40.414Z,49.92
2022-12-07T10:16:25.068Z,48.60
2022-12-07T10:18:53.199Z,51.63
2022-12-07T10:21:26.907Z,47.45
2022-12-07T10:24:15.971Z,45.80
2022-12-07T10:26:52.326Z,46.60
2022-12-07T10:29:29.827Z,50.75
2022-12-07T10:31:59.834Z,49.95
2022-12-07T10:34:41.990Z,48.42
2022-12-07T10:37:10.358Z,38.83
2022-12-07T10:39:52.248Z,41.67
2022-12-07T10:42:30.961Z,39.90
2022-12-07T10:45:13.549Z,36.65
2022-12-07T10:47:55.748Z,34.60
2022-12-07T10:50:56.418Z,36.65
2022-12-07T10:53:41.213Z,30.63
2022-12-07T10:56:35.325Z,36.50
2022-12-07T10:59:21.170Z,25.23
2022-12-07T11:01:54.997Z,26.42
2022-12-07T11:04:59.578Z,24.90
2022-12-07T11:07:35.622Z,23.85
2022-12-07T11:10:23.837Z,30.50
2022-12-07T11:12:59.510Z,27.05
2022-12-07T11:15:33.848Z,21.63
2022-12-07T11:18:16.199Z,25.30
2022-12-07T11:21:09.700Z,23.65
2022-12-07T11:24:16.227Z,24.63
2022-12-07T11:26:48.935Z,22.73
2022-12-07T11:29:54.454Z,22.27
2022-12-07T11:32:33.140Z,23.27
2022-12-07T11:35:18.775Z,27.38
2022-12-07T11:37:47.958Z,16.90
2022-12-07T11:40:18.719Z,16.33
2022-12-07T11:42:56.966Z,20.52
2022-12-07T11:45:38.202Z,26.35
2022-12-07T11:48:15.622Z,20.40
2022-12-07T11:50:54.607Z,12.70
2022-12-07T11:53:25.164Z,14.60
2022-12-07T11:56:01.327Z,12.48
2022-12-07T11:58:50.242Z,13.02
2022-12-07T12:01:40.364Z,11.88
2022-12-07T12:04:10.340Z,13.60
2022-12-07T12:06:38.387Z,12.63
2022-12-07T12:15:17.466Z,10.07
2022-12-07T12:18:15.221Z,12.82
2022-12-07T12:20:52.883Z,14.75
2022-12-07T12:23:19.822Z,10.75
2022-12-07T12:25:57.078Z,10.18
2022-12-07T12:28:55.187Z,12.88
2022-12-07T12:31:22.501Z,10.65
2022-12-07T12:34:01.375Z,13.90
2022-12-07T12:36:49.483Z,12.43
2022-12-07T12:39:20.340Z,12.45
2022-12-07T12:41:50.175Z,8.60
2022-12-07T12:44:18.850Z,7.95
2022-12-07T12:46:50.872Z,15.23
2022-12-07T12:49:20.750Z,13.20
2022-12-07T12:51:52.632Z,14.85
2022-12-07T12:54:19.554Z,9.77
2022-12-07T12:57:08.136Z,15.00
2022-12-07T12:59:53.913Z,12.50
2022-12-07T13:02:53.295Z,10.25
2022-12-07T13:05:29.017Z,11.13
2022-12-07T13:08:35.136Z,14.73
2022-12-07T13:11:44.474Z,11.73
2022-12-07T13:14:43.182Z,10.75
2022-12-07T13:17:12.251Z,11.75
2022-12-07T13:19:42.223Z,13.32
2022-12-07T13:22:31.012Z,19.42
2022-12-07T13:25:01.101Z,10.68
2022-12-07T13:27:28.600Z,8.50
2022-12-07T13:29:58.004Z,8.18
2022-12-07T13:32:27.779Z,14.13
2022-12-07T13:34:54.770Z,11.18
2022-12-07T13:37:37.955Z,10.80
2022-12-07T13:40:23.377Z,10.13
2022-12-07T13:43:04.820Z,9.63
2022-12-07T13:45:49.483Z,10.63
2022-12-07T13:48:25.472Z,16.25
2022-12-07T13:50:57.397Z,15.80
2022-12-07T13:53:25.564Z,13.95
2022-12-07T13:56:00.380Z,10.70
2022-12-07T13:58:30.850Z,8.57
2022-12-07T14:00:58.693Z,11.82
2022-12-07T14:03:32.708Z,12.68
2022-12-07T14:08:34.787Z,8.02
2022-12-07T14:11:02.074Z,9.18
2022-12-07T14:13:59.992Z,7.18
2022-12-07T14:16:29.168Z,8.70
2022-12-07T14:18:58.715Z,10.05
2022-12-07T14:21:28.156Z,9.13
2022-12-07T14:24:20.144Z,9.00
2022-12-07T14:26:49.569Z,9.18
2022-12-07T14:29:29.230Z,9.90
2022-12-07T14:31:57.618Z,8.65
2022-12-07T14:34:25.516Z,6.93
2022-12-07T14:36:52.571Z,10.38
2022-12-07T14:39:19.589Z,8.38
2022-12-07T14:41:52.534Z,10.90
2022-12-07T14:44:24.787Z,9.73
2022-12-07T14:49:41.445Z,7.25
2022-12-07T14:55:23.062Z,7.50
2022-12-07T14:57:50.050Z,5.82
2022-12-07T15:00:18.626Z,9.32
2022-12-07T15:02:48.180Z,7.57
2022-12-07T15:05:16.585Z,14.02
2022-12-07T15:07:45.141Z,6.55
2022-12-07T15:10:24.203Z,7.47
2022-12-07T15:12:52.623Z,9.88
2022-12-07T15:15:19.603Z,8.27
2022-12-07T15:17:46.855Z,8.35
2022-12-07T15:20:15.571Z,12.52
2022-12-07T15:22:42.603Z,6.28
2022-12-07T15:25:13.889Z,5.68
2022-12-07T15:27:40.899Z,9.15
2022-12-07T15:30:08.354Z,8.38
2022-12-07T15:32:35.390Z,11.43
2022-12-07T15:35:02.560Z,7.40
2022-12-07T15:37:29.733Z,6.70
2022-12-07T15:39:56.767Z,9.50
2022-12-07T15:42:23.758Z,7.95
2022-12-07T15:45:06.504Z,6.55
2022-12-07T15:48:02.333Z,8.70
2022-12-07T15:50:24.525Z,8.13
2022-12-07T15:52:51.641Z,7.80
2022-12-07T15:55:18.651Z,9.48
2022-12-07T15:57:45.598Z,12.90
2022-12-07T16:00:13.627Z,12.13
2022-12-07T16:02:40.620Z,8.95
2022-12-07T16:05:07.931Z,8.60
2022-12-07T16:07:34.875Z,9.27
2022-12-07T16:10:01.976Z,10.50
2022-12-07T16:12:28.949Z,10.63
2022-12-07T16:14:55.897Z,9.77
2022-12-07T16:17:22.802Z,9.55
2022-12-07T16:19:49.794Z,10.75
2022-12-07T16:22:16.698Z,8.02
2022-12-07T16:24:43.674Z,14.10
2022-12-07T16:27:11.034Z,19.98
2022-12-07T16:29:38.045Z,14.57
2022-12-07T16:32:05.194Z,11.73
2022-12-07T16:34:32.267Z,11.00
2022-12-07T16:37:04.248Z,10.77
2022-12-07T16:39:33.035Z,11.57
2022-12-07T16:42:00.014Z,9.80
2022-12-07T16:44:27.136Z,9.18
2022-12-07T16:46:54.169Z,8.98
2022-12-07T16:49:21.233Z,11.52
2022-12-07T16:52:08.816Z,10.57
2022-12-07T16:54:38.292Z,9.93
2022-12-07T16:57:05.259Z,8.77
2022-12-07T16:59:32.589Z,8.80
2022-12-07T17:01:59.553Z,9.57
2022-12-07T17:04:26.605Z,9.25
2022-12-07T17:06:53.734Z,11.73
2022-12-07T17:09:21.616Z,6.78
2022-12-07T17:11:49.185Z,12.50
2022-12-07T17:14:34.942Z,10.05
2022-12-07T17:17:02.173Z,8.77
2022-12-07T17:19:29.140Z,9.80
2022-12-07T17:21:56.130Z,14.93
2022-12-07T17:24:23.470Z,11.65
2022-12-07T17:26:50.585Z,12.40
2022-12-07T17:29:19.510Z,9.38
2022-12-07T17:31:51.609Z,18.00
2022-12-07T17:34:19.474Z,13.90
2022-12-07T17:36:47.263Z,11.30
2022-12-07T17:39:17.286Z,9.43
2022-12-07T17:42:16.642Z,12.02
2022-12-07T17:44:43.691Z,11.73
2022-12-07T17:47:11.304Z,12.95
2022-12-07T17:49:38.306Z,15.27
2022-12-07T17:52:43.811Z,13.27
2022-12-07T17:55:10.840Z,9.93
2022-12-07T17:57:37.801Z,8.63
2022-12-07T18:00:06.848Z,13.80
2022-12-07T18:02:38.828Z,8.73
2022-12-07T18:05:06.437Z,11.00
2022-12-07T18:07:33.444Z,9.43
2022-12-07T18:10:00.624Z,13.68
2022-12-07T18:12:27.623Z,11.00
2022-12-07T18:14:55.575Z,9.02
2022-12-07T18:17:22.539Z,9.13
2022-12-07T18:19:49.497Z,11.63
2022-12-07T18:22:16.439Z,10.27
2022-12-07T18:24:43.509Z,9.98
2022-12-07T18:27:10.519Z,13.60
2022-12-07T18:29:37.566Z,10.85
2022-12-07T18:32:05.440Z,9.68
2022-12-07T18:34:32.931Z,14.23
2022-12-07T18:37:00.072Z,12.30
2022-12-07T18:39:33.076Z,10.23
2022-12-07T18:42:00.890Z,11.18
2022-12-07T18:44:27.965Z,13.98
2022-12-07T18:46:54.938Z,15.63
2022-12-07T18:49:22.008Z,17.67
2022-12-07T18:51:49.175Z,21.08
2022-12-07T18:54:16.078Z,23.50
2022-12-07T18:56:43.036Z,24.73
2022-12-07T18:59:32.545Z,28.38
2022-12-07T19:01:59.839Z,22.58
2022-12-07T19:04:26.836Z,25.80
2022-12-07T19:06:53.843Z,27.55
2022-12-07T19:09:21.407Z,26.15
2022-12-07T19:11:49.378Z,20.38
2022-12-07T19:14:21.710Z,30.83
2022-12-07T19:16:52.299Z,28.00
2022-12-07T19:19:21.374Z,22.80
2022-12-07T19:21:49.131Z,24.10
2022-12-07T19:24:22.847Z,17.80
2022-12-07T19:26:51.529Z,27.92
2022-12-07T19:29:18.586Z,18.88
2022-12-07T19:31:46.361Z,18.50
2022-12-07T19:34:18.695Z,15.13
2022-12-07T19:36:47.088Z,16.98
2022-12-07T19:39:15.420Z,23.48
2022-12-07T19:41:44.551Z,21.70
2022-12-07T19:44:23.444Z,29.15
2022-12-07T19:46:51.268Z,35.38
2022-12-07T19:49:19.448Z,20.08
2022-12-07T19:51:54.712Z,20.30
2022-12-07T19:54:25.038Z,41.63
2022-12-07T19:56:52.535Z,84.85
2022-12-07T19:59:22.174Z,63.05
2022-12-07T20:01:49.437Z,42.33
2022-12-07T20:04:21.787Z,34.53
2022-12-07T20:06:51.243Z,25.58
2022-12-07T20:09:18.638Z,24.70
2022-12-07T20:12:04.466Z,23.13
2022-12-07T20:14:32.320Z,24.77
2022-12-07T20:16:59.877Z,24.98
2022-12-07T20:19:27.039Z,24.55
2022-12-07T20:21:55.063Z,20.40
2022-12-07T20:24:25.286Z,16.95
2022-12-07T20:26:54.406Z,16.55
2022-12-07T20:29:24.220Z,24.00
2022-12-07T20:31:52.509Z,16.95
2022-12-07T20:34:19.960Z,16.98
2022-12-07T20:36:47.397Z,15.82
2022-12-07T20:39:14.719Z,15.88
2022-12-07T20:42:00.673Z,17.73
2022-12-07T20:44:27.943Z,19.00
2022-12-07T20:46:55.375Z,14.95
2022-12-07T20:49:22.714Z,18.27
2022-12-07T20:51:51.035Z,17.00
2022-12-07T20:54:18.440Z,15.02
2022-12-07T20:56:45.390Z,15.55
2022-12-07T20:59:15.459Z,23.10
2022-12-07T21:01:43.510Z,17.90
2022-12-07T21:04:12.588Z,17.83
2022-12-07T21:06:39.810Z,20.45
2022-12-07T21:09:06.829Z,15.68
2022-12-07T21:11:33.857Z,19.60
2022-12-07T21:14:00.930Z,20.45
2022-12-07T21:16:30.343Z,17.50
2022-12-07T21:19:00.198Z,21.40
2022-12-07T21:21:27.252Z,18.73
2022-12-07T21:24:00.224Z,18.95
2022-12-07T21:26:30.057Z,22.52
2022-12-07T21:28:57.481Z,20.38
2022-12-07T21:31:24.874Z,15.95
2022-12-07T21:33:51.998Z,22.20
2022-12-07T21:36:21.974Z,17.88
2022-12-07T21:38:50.323Z,18.45
2022-12-07T21:41:20.014Z,17.92
2022-12-07T21:43:48.215Z,17.35
2022-12-07T21:46:16.535Z,15.85
2022-12-07T21:48:44.054Z,13.88
2022-12-07T21:51:14.729Z,18.98
2022-12-07T21:53:42.870Z,19.25
2022-12-07T21:56:31.543Z,23.33
2022-12-07T21:59:21.304Z,21.83
2022-12-07T22:01:49.153Z,18.92
2022-12-07T22:04:19.389Z,18.33
2022-12-07T22:06:47.443Z,18.23
2022-12-07T22:09:14.770Z,20.15
2022-12-07T22:11:41.878Z,20.17
2022-12-07T22:14:28.721Z,15.52
2022-12-07T22:16:57.780Z,19.95
2022-12-07T22:19:26.797Z,24.17
2022-12-07T22:21:53.834Z,19.58
2022-12-07T22:24:20.796Z,22.35
2022-12-07T22:26:47.947Z,22.90
2022-12-07T22:29:14.974Z,22.25
2022-12-07T22:31:42.156Z,28.75
2022-12-07T22:34:16.013Z,43.65
2022-12-07T22:36:43.639Z,43.90
2022-12-07T22:39:11.233Z,40.17
2022-12-07T22:41:38.213Z,34.75
2022-12-07T22:44:07.591Z,32.22
2022-12-07T22:46:34.983Z,32.78
2022-12-07T22:49:02.395Z,28.20
2022-12-07T22:51:32.138Z,28.98
2022-12-07T22:54:00.593Z,24.27
2022-12-07T22:56:29.061Z,22.48
2022-12-07T22:58:56.773Z,20.98
2022-12-07T23:01:24.467Z,17.92
2022-12-07T23:03:52.105Z,19.83
2022-12-07T23:06:24.960Z,19.63
2022-12-07T23:08:53.089Z,19.90
2022-12-07T23:11:40.996Z,18.80
2022-12-07T23:14:19.611Z,18.05
2022-12-07T23:16:47.080Z,22.02
2022-12-07T23:19:14.215Z,18.85
2022-12-07T23:21:41.253Z,20.80
2022-12-07T23:24:09.119Z,18.80
2022-12-07T23:26:36.066Z,20.75
2022-12-07T23:29:03.171Z,24.45
2022-12-07T23:31:30.253Z,23.70
2022-12-07T23:33:57.235Z,27.40
2022-12-07T23:36:26.868Z,25.52
2022-12-07T23:38:56.076Z,22.63
2022-12-07T23:41:25.735Z,26.65
2022-12-07T23:43:54.443Z,25.40
2022-12-07T23:46:24.019Z,23.65
2022-12-07T23:48:53.295Z,27.55
2022-12-07T23:51:20.730Z,20.60
2022-12-07T23:53:49.519Z,18.88
2022-12-07T23:56:22.842Z,23.38
2022-12-07T23:58:50.652Z,20.92
